This is the latest recevied weather packets stored in our database for station/object TAPIOLA. If no packets are shown the sender has not sent any weather packets the latest 10 day(s).
| Time | Temp. | Humidity | Pressure | Rain* | Wind** | Luminosity | Snow |
|---|---|---|---|---|---|---|---|
| 1788500684 | 10° C | 100% | 999.7 hPa | 0 mm | - | - | - |
| 1788498283 | 8.89° C | 100% | 1000 hPa | 0 mm | - | - | - |
| 1788497082 | 8.33° C | 100% | 1000.2 hPa | 0 mm | - | - | - |
| 1788494683 | 7.78° C | 100% | 1000.8 hPa | 0 mm | - | - | - |
| 1788493483 | 7.78° C | 100% | 1001 hPa | 0 mm | - | - | - |
| 1788492284 | 7.22° C | 100% | 1001.3 hPa | 0 mm | - | - | - |
| 1788489673 | 7.78° C | 100% | 1001.9 hPa | 0 mm | - | - | - |
| 1788488473 | 7.78° C | 100% | 1002 hPa | 0 mm | - | - | - |
| 1788474073 | 8.89° C | 99% | 1004.3 hPa | 0 mm | - | - | - |
| 1788470683 | 9.44° C | 97% | 1004.7 hPa | 0 mm | - | - | - |
| 1788469484 | 9.44° C | 97% | 1004.7 hPa | 0 mm | - | - | - |
| 1788467084 | 10.56° C | 93% | 1004.8 hPa | 0 mm | - | - | - |
| 1788465883 | 11.11° C | 91% | 1005 hPa | 0 mm | - | - | - |
| 1788464682 | 11.11° C | 89% | 1005.1 hPa | 0 mm | - | - | - |
| 1788440681 | 18.33° C | 53% | 1005.2 hPa | 0 mm | - | - | - |
| 1788438280 | 18.33° C | 58% | 1005.1 hPa | 0 mm | - | - | - |
| 1788434680 | 17.78° C | 54% | 1005.2 hPa | 0 mm | - | - | - |
| 1788433481 | 18.33° C | 52% | 1005.2 hPa | 0 mm | - | - | - |
| 1788431080 | 18.33° C | 49% | 1005.4 hPa | 0 mm | - | - | - |
| 1788429880 | 18.33° C | 52% | 1005.4 hPa | 0 mm | - | - | - |
| 1788427270 | 18.33° C | 53% | 1005.5 hPa | 0 mm | - | - | - |
| 1788423880 | 17.78° C | 55% | 1005.7 hPa | 0 mm | - | - | - |
| 1788422682 | 17.22° C | 64% | 1005.8 hPa | 0 mm | - | - | - |
| 1788421479 | 16.67° C | 65% | 1005.9 hPa | 0 mm | - | - | - |
| 1788420279 | 16.67° C | 72% | 1005.9 hPa | 0 mm | - | - | - |
* Rain latest hour (hover to see other rain measurements)
** Current wind speed in m/s (hover to see current wind gust speed)